Time;durP1;ratioP1;P1;durP2;ratioP2;P2;SDS_P1;SDS_P2;PMS_P1;PMS_P2;Temp;Humidity;BMP_temperature;BMP_pressure;BME280_temperature;BME280_humidity;BME280_pressure;Samples;Min_cycle;Max_cycle;Signal;HPM_P1;HPM_P2
2024/04/11 00:01:55;;;;;;;;;19.00;19.00;;;;;11.05;100.00;100475.88;6273525;20;2832598;-37
2024/04/11 00:04:23;;;;;;;;;13.00;12.67;;;;;10.89;100.00;100466.84;6270887;20;2777371;-37
2024/04/11 00:06:51;;;;;;;;;23.00;21.50;;;;;10.77;100.00;100479.09;6302987;20;2841036;-37
2024/04/11 00:09:17;;;;;;;;;19.50;19.50;;;;;11.04;100.00;100484.03;6267857;20;2500447;-37
2024/04/11 00:11:45;;;;;;;;;22.00;22.00;;;;;11.13;100.00;100480.84;6271721;20;2842042;-37
2024/04/11 00:14:11;;;;;;;;;21.00;19.50;;;;;10.85;100.00;100478.69;6269533;20;2496214;-38
2024/04/11 00:16:39;;;;;;;;;22.00;20.00;;;;;10.57;100.00;100474.69;6269427;20;2834812;-37
2024/04/11 00:19:06;;;;;;;;;21.50;21.50;;;;;10.27;100.00;100485.06;6273415;20;2498181;-37
2024/04/11 00:21:33;;;;;;;;;23.00;20.50;;;;;10.63;100.00;100477.06;6277955;20;2852358;-38
2024/04/11 00:24:01;;;;;;;;;23.50;22.50;;;;;10.65;100.00;100474.31;6275345;20;2836752;-37
2024/04/11 00:26:28;;;;;;;;;23.50;23.50;;;;;10.57;100.00;100473.84;6276603;20;2848228;-37
2024/04/11 00:28:56;;;;;;;;;22.50;22.00;;;;;10.85;100.00;100474.22;6277145;20;2844051;-37
2024/04/11 00:31:26;;;;;;;;;25.33;22.00;;;;;11.30;100.00;100485.38;6276513;20;2836792;-37
2024/04/11 00:33:56;;;;;;;;;24.33;24.00;;;;;11.15;100.00;100487.91;6309714;20;3579496;-36
2024/04/11 00:36:24;;;;;;;;;25.67;23.33;;;;;11.41;100.00;100477.63;6309991;20;3584659;-37
2024/04/11 00:38:53;;;;;;;;;23.00;21.50;;;;;11.49;100.00;100483.47;6273283;20;2833694;-37
2024/04/11 00:41:19;;;;;;;;;21.00;17.50;;;;;11.67;100.00;100497.75;6274354;20;2500309;-37
2024/04/11 00:43:47;;;;;;;;;18.50;18.50;;;;;11.70;100.00;100494.03;6276472;20;2831620;-37
2024/04/11 00:46:15;;;;;;;;;21.00;19.00;;;;;11.59;100.00;100491.94;6275406;20;2838919;-37
2024/04/11 00:48:42;;;;;;;;;22.00;22.00;;;;;11.56;100.00;100492.97;6274777;20;2822267;-37
2024/04/11 00:51:10;;;;;;;;;24.00;22.00;;;;;11.47;100.00;100498.81;6274972;20;2843146;-36
2024/04/11 00:53:37;;;;;;;;;23.00;20.00;;;;;11.49;100.00;100498.75;6276730;20;2841960;-37
2024/04/11 00:56:05;;;;;;;;;26.00;21.00;;;;;11.34;100.00;100498.56;6275299;20;2841971;-37
2024/04/11 00:58:33;;;;;;;;;20.00;20.00;;;;;11.07;100.00;100498.16;6276569;20;2830505;-37
2024/04/11 01:01:01;;;;;;;;;24.00;20.50;;;;;11.00;100.00;100499.41;6275234;20;2833589;-37
2024/04/11 01:03:29;;;;;;;;;24.50;21.00;;;;;11.01;100.00;100500.31;6277642;20;2839899;-37
2024/04/11 01:05:56;;;;;;;;;25.50;23.50;;;;;10.63;100.00;100500.38;6275333;20;2842991;-37
2024/04/11 01:08:27;;;;;;;;;22.00;20.50;;;;;10.69;100.00;100500.06;6275683;20;2831545;-36
2024/04/11 01:10:55;;;;;;;;;21.00;20.00;;;;;10.65;100.00;100499.34;6275890;20;2844116;-37
2024/04/11 01:13:23;;;;;;;;;20.50;18.00;;;;;10.86;100.00;100499.25;6276642;20;2833735;-37
2024/04/11 01:15:53;;;;;;;;;21.00;21.00;;;;;10.83;100.00;100502.97;6274231;20;2844117;-37
2024/04/11 01:18:21;;;;;;;;;24.00;22.00;;;;;11.02;100.00;100502.91;6274836;20;2834811;-37
2024/04/11 01:20:48;;;;;;;;;20.50;19.00;;;;;11.09;100.00;100512.41;6273727;20;2500335;-37
2024/04/11 01:23:15;;;;;;;;;25.00;22.00;;;;;10.98;100.00;100506.72;6273337;20;2835678;-37
2024/04/11 01:25:43;;;;;;;;;27.00;24.50;;;;;10.82;100.00;100503.03;6272920;20;2821033;-37
2024/04/11 01:28:11;;;;;;;;;22.50;22.50;;;;;10.76;100.00;100513.13;6266757;20;2838859;-37
2024/04/11 01:30:38;;;;;;;;;24.50;22.50;;;;;10.95;100.00;100520.28;6270941;20;2849276;-37
2024/04/11 01:33:09;;;;;;;;;25.00;24.50;;;;;10.92;100.00;100517.75;6272859;20;2840248;-37
2024/04/11 01:35:37;;;;;;;;;19.00;19.00;;;;;10.81;100.00;100520.09;6269091;20;2839866;-37
2024/04/11 01:38:05;;;;;;;;;22.50;22.00;;;;;10.69;100.00;100522.44;6273462;20;2836494;-37
2024/04/11 01:40:41;;;;;;;;;26.50;24.00;;;;;10.82;100.00;100525.41;6273927;20;2824355;-37
2024/04/11 01:43:09;;;;;;;;;22.50;22.00;;;;;10.74;100.00;100528.47;6270734;20;2843054;-37
2024/04/11 01:45:39;;;;;;;;;25.00;23.50;;;;;10.85;100.00;100527.03;6271681;20;2841185;-37
2024/04/11 01:48:08;;;;;;;;;22.00;20.50;;;;;10.86;100.00;100535.03;6274193;20;2830564;-37
2024/04/11 01:50:41;;;;;;;;;24.50;23.00;;;;;10.90;100.00;100525.00;6275807;20;2835664;-37
2024/04/11 01:53:09;;;;;;;;;21.00;21.00;;;;;10.89;100.00;100523.28;6272767;20;2829626;-38
2024/04/11 01:55:36;;;;;;;;;21.50;20.00;;;;;10.81;100.00;100525.47;6272061;20;2839853;-37
2024/04/11 01:58:05;;;;;;;;;20.00;20.00;;;;;10.85;100.00;100530.63;6274418;20;2844142;-37
2024/04/11 02:00:36;;;;;;;;;25.50;23.00;;;;;10.58;100.00;100530.13;6270577;20;2843102;-37
2024/04/11 02:03:04;;;;;;;;;25.00;23.00;;;;;10.55;100.00;100525.78;6275056;20;2828468;-37
2024/04/11 02:05:34;;;;;;;;;24.50;21.50;;;;;10.68;100.00;100530.56;6273167;20;2843028;-37
2024/04/11 02:08:02;;;;;;;;;21.00;21.00;;;;;10.74;100.00;100535.63;6273676;20;2500290;-37
2024/04/11 02:10:30;;;;;;;;;25.00;23.00;;;;;10.77;100.00;100531.00;6276206;20;2858641;-38
2024/04/11 02:12:58;;;;;;;;;24.00;22.00;;;;;10.59;100.00;100531.88;6274369;20;2840913;-38
2024/04/11 02:15:27;;;;;;;;;23.00;22.50;;;;;10.69;100.00;100529.59;6274455;20;2835717;-37
2024/04/11 02:17:55;;;;;;;;;23.50;23.00;;;;;10.56;100.00;100529.34;6273251;20;2852405;-37
2024/04/11 02:20:24;;;;;;;;;24.00;24.00;;;;;10.73;100.00;100521.34;6272219;20;2840992;-37
2024/04/11 02:22:53;;;;;;;;;21.50;20.00;;;;;10.62;100.00;100525.50;6273453;20;2829592;-37
2024/04/11 02:25:21;;;;;;;;;18.00;18.00;;;;;10.65;100.00;100534.28;6271857;20;2480630;-36
2024/04/11 02:27:48;;;;;;;;;21.50;21.50;;;;;10.52;100.00;100528.63;6273846;20;2844071;-39
2024/04/11 02:30:16;;;;;;;;;24.50;23.50;;;;;10.66;100.00;100532.44;6272301;20;2839930;-39
2024/04/11 02:32:43;;;;;;;;;26.00;22.00;;;;;10.68;100.00;100525.19;6273700;20;2837838;-37
2024/04/11 02:35:11;;;;;;;;;22.50;22.50;;;;;10.58;100.00;100530.13;6273220;20;2843019;-36
2024/04/11 02:37:39;;;;;;;;;22.50;22.50;;;;;10.79;100.00;100530.03;6274067;20;2830540;-36
2024/04/11 02:40:07;;;;;;;;;24.00;22.00;;;;;10.64;100.00;100527.16;6272527;20;2836719;-37
2024/04/11 02:42:39;;;;;;;;;20.50;19.00;;;;;10.58;100.00;100526.56;6271353;20;2836752;-37
2024/04/11 02:45:14;;;;;;;;;26.00;24.50;;;;;10.67;100.00;100534.22;6273313;20;2841920;-37
2024/04/11 02:47:42;;;;;;;;;20.00;20.00;;;;;10.57;100.00;100533.78;6273331;20;2829465;-36
2024/04/11 02:50:15;;;;;;;;;21.00;21.00;;;;;10.64;100.00;100529.84;6273406;20;2500312;-37
2024/04/11 02:52:43;;;;;;;;;27.00;24.00;;;;;10.69;100.00;100540.34;6272324;20;2500383;-35
2024/04/11 02:55:14;;;;;;;;;23.00;19.00;;;;;10.53;100.00;100540.22;6269816;20;2501183;-37
2024/04/11 02:57:42;;;;;;;;;22.50;20.50;;;;;10.57;100.00;100546.34;6269433;20;2838822;-36
2024/04/11 03:00:11;;;;;;;;;19.50;18.00;;;;;10.44;100.00;100544.22;6271949;20;2842054;-36
2024/04/11 03:02:38;;;;;;;;;23.00;23.00;;;;;10.31;100.00;100551.97;6274050;20;2837958;-36
2024/04/11 03:05:06;;;;;;;;;24.00;22.00;;;;;10.41;100.00;100559.63;6274582;20;2856533;-36
2024/04/11 03:07:34;;;;;;;;;23.00;22.50;;;;;9.81;100.00;100555.13;6270103;20;2834829;-36
2024/04/11 03:10:02;;;;;;;;;24.00;21.00;;;;;10.42;100.00;100556.84;6266162;20;2835729;-36
2024/04/11 03:12:29;;;;;;;;;20.00;18.50;;;;;10.16;100.00;100560.69;6271544;20;2500321;-36
2024/04/11 03:14:57;;;;;;;;;24.00;22.00;;;;;10.32;100.00;100572.53;6271122;20;2846080;-37
2024/04/11 03:17:24;;;;;;;;;23.00;23.00;;;;;10.55;100.00;100571.44;6272433;20;2837981;-37
2024/04/11 03:19:51;;;;;;;;;22.50;22.50;;;;;10.40;100.00;100573.97;6268807;20;2500254;-37
2024/04/11 03:22:17;;;;;;;;;25.00;22.00;;;;;10.33;100.00;100579.63;6272819;20;2500289;-36
2024/04/11 03:24:45;;;;;;;;;20.00;20.00;;;;;10.12;100.00;100575.22;6272032;20;2839940;-37
2024/04/11 03:27:13;;;;;;;;;21.50;20.00;;;;;10.50;100.00;100576.13;6273870;20;2827390;-37
2024/04/11 03:29:43;;;;;;;;;22.50;22.50;;;;;10.42;100.00;100583.69;6271198;20;2840954;-37
2024/04/11 03:32:12;;;;;;;;;24.00;22.50;;;;;10.23;100.00;100580.09;6274646;20;2845257;-36
2024/04/11 03:34:40;;;;;;;;;26.33;25.33;;;;;10.22;100.00;100581.91;6272477;20;2858650;-36
2024/04/11 03:37:09;;;;;;;;;24.00;20.00;;;;;10.31;100.00;100581.50;6301413;20;2498211;-39
2024/04/11 03:39:38;;;;;;;;;22.00;20.50;;;;;10.29;100.00;100593.25;6269216;20;2840893;-37
2024/04/11 03:42:07;;;;;;;;;20.00;20.00;;;;;10.31;100.00;100594.91;6272186;20;2500350;-36
2024/04/11 03:44:35;;;;;;;;;26.50;21.50;;;;;10.27;100.00;100589.75;6272206;20;2839273;-42
2024/04/11 03:47:05;;;;;;;;;20.00;20.00;;;;;10.30;100.00;100600.38;6270833;20;2834667;-41
2024/04/11 03:49:32;;;;;;;;;25.33;24.33;;;;;10.45;100.00;100598.78;6268846;20;3586712;-42
2024/04/11 03:52:00;;;;;;;;;28.50;24.50;;;;;10.25;100.00;100597.88;6273193;20;2842008;-41
2024/04/11 03:54:27;;;;;;;;;26.00;23.00;;;;;10.28;100.00;100589.69;6275745;20;2837775;-39
2024/04/11 03:56:55;;;;;;;;;21.50;21.00;;;;;10.18;100.00;100585.66;6278708;20;2844125;-39
2024/04/11 03:59:22;;;;;;;;;23.00;23.00;;;;;10.21;100.00;100593.56;6276519;20;2832578;-40
2024/04/11 04:01:50;;;;;;;;;23.00;23.00;;;;;10.23;100.00;100598.88;6278785;20;2844640;-40
2024/04/11 04:04:19;;;;;;;;;24.00;22.50;;;;;10.25;100.00;100603.22;6277561;20;2835724;-41
2024/04/11 04:06:47;;;;;;;;;21.50;21.00;;;;;10.39;100.00;100604.44;6277999;20;2830490;-39
2024/04/11 04:09:15;;;;;;;;;24.50;23.00;;;;;10.17;100.00;100605.41;6276140;20;2846123;-41
2024/04/11 04:11:42;;;;;;;;;20.50;20.00;;;;;10.30;100.00;100605.75;6273898;20;2500371;-43
2024/04/11 04:14:11;;;;;;;;;25.00;22.50;;;;;10.43;100.00;100614.97;6277155;20;2848318;-40
2024/04/11 04:16:38;;;;;;;;;22.50;20.00;;;;;10.41;100.00;100613.31;6275602;20;2500293;-39
2024/04/11 04:19:07;;;;;;;;;23.00;23.00;;;;;10.31;100.00;100621.75;6276038;20;2834677;-39
2024/04/11 04:21:35;;;;;;;;;23.00;19.50;;;;;10.40;100.00;100619.59;6273148;20;2500273;-39
2024/04/11 04:24:05;;;;;;;;;24.00;24.00;;;;;10.37;100.00;100622.44;6275975;20;2500308;-40
2024/04/11 04:26:32;;;;;;;;;24.50;24.50;;;;;10.38;100.00;100638.47;6275187;20;2838321;-40
2024/04/11 04:29:00;;;;;;;;;20.50;19.50;;;;;10.35;100.00;100627.00;6274676;20;2844160;-39
2024/04/11 04:31:32;;;;;;;;;23.50;22.50;;;;;10.32;100.00;100636.94;6276362;20;2834686;-40
2024/04/11 04:34:03;;;;;;;;;21.00;21.00;;;;;10.13;100.00;100640.47;6277028;20;2839900;-39
2024/04/11 04:36:39;;;;;;;;;26.00;26.00;;;;;10.29;100.00;100631.72;6275177;20;2852368;-39
2024/04/11 04:39:08;;;;;;;;;21.50;20.50;;;;;10.05;100.00;100647.03;6276189;20;2837917;-40
2024/04/11 04:41:35;;;;;;;;;26.50;23.50;;;;;9.79;100.00;100642.81;6273602;20;2839233;-39
2024/04/11 04:44:05;;;;;;;;;25.00;23.00;;;;;9.31;100.00;100646.63;6277903;20;2846163;-38
2024/04/11 04:46:34;;;;;;;;;23.50;22.00;;;;;9.06;100.00;100646.75;6276981;20;2844031;-39
2024/04/11 04:49:09;;;;;;;;;25.00;23.50;;;;;10.02;100.00;100651.69;6275478;20;2844031;-39
2024/04/11 04:51:38;;;;;;;;;21.50;20.50;;;;;9.97;100.00;100667.09;6276799;20;2839847;-40
2024/04/11 04:54:11;;;;;;;;;22.00;19.50;;;;;10.08;100.00;100664.81;6273979;20;2840323;-41
2024/04/11 04:56:39;;;;;;;;;30.00;26.50;;;;;10.66;100.00;100672.97;6276012;20;2841964;-38
2024/04/11 04:59:08;;;;;;;;;24.00;21.50;;;;;11.02;100.00;100682.09;6273766;20;2844027;-37
2024/04/11 05:01:36;;;;;;;;;22.00;21.50;;;;;12.11;100.00;100688.31;6269241;20;2842041;-39
2024/04/11 05:04:05;;;;;;;;;21.00;21.00;;;;;11.97;100.00;100680.97;6279176;20;3571130;-39
2024/04/11 05:06:33;;;;;;;;;18.33;18.33;;;;;11.56;100.00;100686.63;6310123;20;3569020;-40
2024/04/11 05:09:00;;;;;;;;;23.67;22.00;;;;;11.41;100.00;100687.34;6308799;20;3574356;-39
2024/04/11 05:11:31;;;;;;;;;25.67;22.33;;;;;11.84;100.00;100695.97;6310204;20;3575238;-39
2024/04/11 05:13:59;;;;;;;;;23.00;21.00;;;;;11.95;100.00;100693.63;6272603;20;2835841;-40
2024/04/11 05:16:28;;;;;;;;;22.00;21.00;;;;;11.99;100.00;100688.97;6273665;20;2831600;-41
2024/04/11 05:18:54;;;;;;;;;21.50;20.50;;;;;11.95;100.00;100693.63;6273328;20;2500291;-40
2024/04/11 05:21:26;;;;;;;;;22.50;20.50;;;;;12.18;100.00;100703.22;6273228;20;2847229;-39
2024/04/11 05:23:55;;;;;;;;;12.00;9.00;;;;;11.91;100.00;100702.81;6274973;20;2773196;-40
2024/04/11 05:26:23;;;;;;;;;20.00;20.00;;;;;12.27;100.00;100704.59;6276226;20;2829451;-40
2024/04/11 05:28:57;;;;;;;;;20.50;19.50;;;;;12.51;100.00;100705.09;6273250;20;2829746;-39
2024/04/11 05:31:28;;;;;;;;;22.00;19.50;;;;;14.00;89.94;100702.13;6274967;20;2827382;-40
2024/04/11 05:34:06;;;;;;;;;23.33;22.00;;;;;12.97;96.46;100705.28;6274669;20;3575372;-40
2024/04/11 05:36:34;;;;;;;;;16.67;15.00;;;;;13.13;97.33;100708.00;6306484;20;3528386;-40
2024/04/11 05:39:03;;;;;;;;;21.00;18.00;;;;;13.26;96.74;100703.69;6274838;20;3562278;-40
2024/04/11 05:41:30;;;;;;;;;15.00;15.00;;;;;13.81;94.13;100708.63;6303848;20;2498228;-39
2024/04/11 05:43:59;;;;;;;;;24.50;21.00;;;;;14.66;86.47;100711.66;6275443;20;2838815;-40
2024/04/11 05:46:27;;;;;;;;;21.00;17.50;;;;;14.87;86.39;100720.25;6274762;20;2839915;-40
2024/04/11 05:48:55;;;;;;;;;22.50;21.50;;;;;16.12;78.23;100727.44;6273227;20;2834743;-40
2024/04/11 05:51:23;;;;;;;;;19.50;19.00;;;;;14.39;87.62;100722.31;6273254;20;2830485;-42
2024/04/11 05:53:51;;;;;;;;;17.00;17.00;;;;;14.40;89.05;100726.75;6274820;20;2833714;-41
2024/04/11 05:56:19;;;;;;;;;21.00;20.00;;;;;14.45;89.40;100724.63;6274091;20;2833606;-41
2024/04/11 05:58:49;;;;;;;;;22.50;19.50;;;;;15.69;83.36;100737.56;6262434;20;2844032;-39
2024/04/11 06:01:17;;;;;;;;;22.00;18.50;;;;;18.26;69.12;100736.47;6273050;20;2838930;-41
2024/04/11 06:03:46;;;;;;;;;19.67;19.67;;;;;15.47;80.81;100730.81;6274213;20;3576304;-41
2024/04/11 06:06:15;;;;;;;;;21.00;21.00;;;;;15.47;83.97;100730.81;6272052;20;2844053;-39
2024/04/11 06:08:43;;;;;;;;;25.50;22.50;;;;;15.38;85.04;100731.44;6271856;20;2846104;-39
2024/04/11 06:11:11;;;;;;;;;20.00;20.00;;;;;15.29;84.57;100743.72;6273177;20;2836857;-39
2024/04/11 06:13:39;;;;;;;;;24.00;21.00;;;;;15.46;85.12;100744.47;6276111;20;3577415;-39
2024/04/11 06:16:07;;;;;;;;;18.50;17.50;;;;;15.54;84.89;100745.72;6270795;20;2834653;-41
2024/04/11 06:18:35;;;;;;;;;20.00;18.00;;;;;15.71;84.06;100754.59;6274924;20;3573183;-40
2024/04/11 06:21:05;;;;;;;;;23.00;21.00;;;;;16.05;83.02;100755.91;6271988;20;2839977;-39
2024/04/11 06:23:35;;;;;;;;;20.33;20.33;;;;;16.01;82.12;100752.56;6274278;20;3569073;-41
2024/04/11 06:26:02;;;;;;;;;19.00;19.00;;;;;16.04;82.55;100761.47;6307937;20;3566965;-41
2024/04/11 06:28:33;;;;;;;;;19.00;18.00;;;;;16.40;80.80;100764.38;6272067;20;3579558;-41
2024/04/11 06:31:01;;;;;;;;;20.50;20.50;;;;;16.31;81.52;100767.69;6270979;20;2844166;-41
2024/04/11 06:33:31;;;;;;;;;21.50;18.00;;;;;16.41;80.60;100765.25;6274314;20;2837840;-43
2024/04/11 06:35:59;;;;;;;;;20.67;16.67;;;;;16.22;84.90;100766.50;6275532;20;3573264;-40
2024/04/11 06:38:27;;;;;;;;;20.00;20.00;;;;;16.95;79.86;100775.06;6273368;20;2830519;-40
2024/04/11 06:40:55;;;;;;;;;20.00;20.00;;;;;16.97;78.30;100767.69;6277080;20;2846597;-38
2024/04/11 06:43:25;;;;;;;;;15.50;15.50;;;;;17.14;77.79;100772.81;6305524;20;2814997;-39
2024/04/11 06:45:54;;;;;;;;;18.00;15.50;;;;;17.62;77.29;100778.34;6274677;20;2825755;-40
2024/04/11 06:48:21;;;;;;;;;18.50;18.50;;;;;17.95;74.52;100785.00;6274861;20;2830521;-40
2024/04/11 06:50:50;;;;;;;;;19.00;19.00;;;;;17.83;76.15;100792.25;6273666;20;2837875;-40
2024/04/11 06:53:18;;;;;;;;;17.00;17.00;;;;;17.84;74.47;100787.66;6273027;20;2829450;-41
2024/04/11 06:55:46;;;;;;;;;19.00;19.00;;;;;18.00;73.09;100785.53;6272537;20;2834682;-38
2024/04/11 06:58:22;;;;;;;;;24.00;21.00;;;;;18.13;71.90;100783.63;6277235;20;3571119;-38
2024/04/11 07:01:00;;;;;;;;;23.50;20.00;;;;;18.51;71.33;100788.00;6273189;20;2844164;-39
2024/04/11 07:03:30;;;;;;;;;22.33;20.33;;;;;18.64;71.50;100786.06;6274344;20;2834692;-38
2024/04/11 07:06:16;;;;;;;;;18.33;18.33;;;;;18.65;71.93;100786.91;6306478;20;3561861;-38
2024/04/11 07:08:43;;;;;;;;;22.00;20.00;;;;;18.71;71.01;100786.44;6274855;20;3434635;-39
2024/04/11 07:11:20;;;;;;;;;21.67;19.33;;;;;18.90;69.94;100794.03;6307380;20;3579480;-38
2024/04/11 07:13:53;;;;;;;;;23.00;18.00;;;;;17.81;74.56;100791.47;6271537;20;2834651;-38
2024/04/11 07:16:29;;;;;;;;;22.33;20.33;;;;;18.21;73.21;100786.63;6274222;20;2837844;-38
2024/04/11 07:18:57;;;;;;;;;19.67;19.00;;;;;19.09;70.68;100796.19;6305310;20;3574333;-38
2024/04/11 07:21:30;;;;;;;;;18.00;17.67;;;;;18.20;71.96;100787.63;6277752;20;3563816;-39
2024/04/11 07:23:58;;;;;;;;;18.00;18.00;;;;;18.82;71.24;100785.63;6274517;20;3569099;-38
2024/04/11 07:26:31;;;;;;;;;18.50;18.50;;;;;19.17;67.13;100798.28;6270668;20;2843015;-44
2024/04/11 07:29:03;;;;;;;;;18.50;16.50;;;;;20.11;63.96;100794.25;6270051;20;2838847;-47
2024/04/11 07:31:35;;;;;;;;;18.00;16.00;;;;;18.74;70.84;100797.06;6272283;20;2825334;-42
2024/04/11 07:34:03;;;;;;;;;21.67;21.67;;;;;18.35;68.97;100795.56;6277996;20;3566929;-41
2024/04/11 07:36:39;;;;;;;;;19.67;19.67;;;;;19.00;69.11;100797.78;6271980;20;3564917;-42
2024/04/11 07:39:13;;;;;;;;;20.33;18.67;;;;;18.72;69.78;100798.19;6272019;20;2839923;-45
2024/04/11 07:41:44;;;;;;;;;19.67;19.33;;;;;18.39;70.06;100792.50;6304614;20;3583646;-41
2024/04/11 07:44:17;;;;;;;;;19.50;19.50;;;;;20.43;62.97;100804.31;6303145;20;2833678;-42
2024/04/11 07:46:46;;;;;;;;;20.00;17.00;;;;;20.64;60.74;100805.22;6272742;20;2842014;-42
2024/04/11 07:49:15;;;;;;;;;17.00;17.00;;;;;20.01;63.41;100810.53;6303241;20;3573229;-41
2024/04/11 07:51:43;;;;;;;;;19.67;17.67;;;;;20.56;61.16;100815.94;6273678;20;3568018;-41
2024/04/11 07:54:13;;;;;;;;;20.00;17.00;;;;;21.34;58.90;100816.47;6272168;20;3573212;-39
2024/04/11 07:56:41;;;;;;;;;17.50;17.50;;;;;21.40;56.99;100815.94;6272013;20;2828439;-38
2024/04/11 07:59:11;;;;;;;;;17.00;15.50;;;;;21.83;56.63;100823.03;6270969;20;2829481;-37
2024/04/11 08:01:41;;;;;;;;;18.33;17.67;;;;;21.61;55.71;100821.34;6275417;20;3573210;-37
2024/04/11 08:04:11;;;;;;;;;20.00;16.50;;;;;20.91;58.48;100822.97;6272673;20;2828457;-45
2024/04/11 08:06:39;;;;;;;;;19.00;19.00;;;;;21.20;56.37;100821.28;6273098;20;2830526;-46
2024/04/11 08:09:07;;;;;;;;;16.50;14.50;;;;;21.44;55.25;100828.34;6271304;20;2823252;-44
2024/04/11 08:11:36;;;;;;;;;16.67;16.67;;;;;21.52;55.40;100825.78;6275365;20;3561748;-45
2024/04/11 08:14:04;;;;;;;;;18.00;17.00;;;;;21.27;55.64;100824.31;6306847;20;3568021;-46
2024/04/11 08:16:33;;;;;;;;;16.00;16.00;;;;;21.64;55.82;100829.25;6275402;20;3561773;-44
2024/04/11 08:19:03;;;;;;;;;18.33;17.33;;;;;20.11;59.80;100832.44;6273229;20;3577514;-51
2024/04/11 08:21:32;;;;;;;;;19.33;17.67;;;;;20.74;57.73;100829.88;6268716;20;2837804;-48
2024/04/11 08:24:00;;;;;;;;;18.00;16.00;;;;;21.65;55.05;100829.13;6302790;20;2827378;-47
2024/04/11 08:26:29;;;;;;;;;17.00;16.50;;;;;20.79;56.83;100833.06;6271704;20;2841951;-51
2024/04/11 08:28:56;;;;;;;;;18.50;17.50;;;;;20.73;57.70;100845.38;6271204;20;2830519;-48
2024/04/11 08:31:30;;;;;;;;;17.50;15.00;;;;;21.56;55.39;100835.41;6272731;20;3498189;-47
2024/04/11 08:33:58;;;;;;;;;18.33;17.33;;;;;20.73;56.26;100839.94;6307630;20;3575262;-49
2024/04/11 08:36:28;;;;;;;;;19.00;17.00;;;;;21.58;56.12;100838.88;6274067;20;3567960;-49
2024/04/11 08:38:58;;;;;;;;;17.00;15.00;;;;;22.40;53.54;100836.97;6272567;20;2750282;-46
2024/04/11 08:41:25;;;;;;;;;15.00;14.67;;;;;22.67;51.31;100839.00;6310976;20;3544085;-49
2024/04/11 08:43:56;;;;;;;;;16.50;14.50;;;;;22.40;51.58;100832.34;6276658;20;2809765;-44
2024/04/11 08:46:24;;;;;;;;;15.67;13.67;;;;;21.07;55.82;100831.56;6279058;20;2487824;-47
2024/04/11 08:48:52;;;;;;;;;15.00;14.67;;;;;22.58;51.67;100829.78;6311911;20;3539881;-44
2024/04/11 08:51:22;;;;;;;;;16.00;16.00;;;;;22.95;52.07;100838.09;6308072;20;2814872;-47
2024/04/11 08:53:54;;;;;;;;;17.00;16.33;;;;;23.45;49.78;100845.22;6279547;20;3554439;-47
2024/04/11 08:56:22;;;;;;;;;16.50;15.50;;;;;22.67;52.17;100847.19;6276326;20;2823358;-47
2024/04/11 08:58:50;;;;;;;;;16.00;14.00;;;;;21.86;55.04;100847.34;6278507;20;3541975;-47
2024/04/11 09:01:19;;;;;;;;;17.33;16.00;;;;;22.36;51.66;100841.88;6310891;20;3574301;-46
2024/04/11 09:03:50;;;;;;;;;17.00;16.67;;;;;21.69;55.00;100844.25;6280169;20;3555457;-47
2024/04/11 09:06:24;;;;;;;;;16.00;16.00;;;;;22.44;52.50;100839.28;6312362;20;3558616;-49
2024/04/11 09:08:53;;;;;;;;;14.33;14.33;;;;;23.10;51.19;100848.66;6274129;20;2483682;-49
2024/04/11 09:11:22;;;;;;;;;15.33;14.33;;;;;23.03;50.54;100850.25;6312552;20;3530531;-51
2024/04/11 09:13:50;;;;;;;;;18.50;15.00;;;;;23.23;50.25;100841.84;6306429;20;2824216;-48
2024/04/11 09:16:21;;;;;;;;;17.00;14.00;;;;;23.27;50.79;100841.53;6277695;20;2540903;-49
2024/04/11 09:19:10;;;;;;;;;15.67;14.33;;;;;23.25;50.48;100843.56;6309109;20;3539893;-51
2024/04/11 09:21:45;;;;;;;;;17.00;15.67;;;;;23.20;51.52;100839.41;6306761;20;2483732;-50
2024/04/11 09:24:18;;;;;;;;;16.50;16.50;;;;;24.01;48.90;100840.66;6307704;20;2827426;-49
2024/04/11 09:26:47;;;;;;;;;13.00;11.67;;;;;23.32;50.14;100845.56;6276290;20;3517025;-47
2024/04/11 09:29:17;;;;;;;;;14.33;14.33;;;;;22.96;50.99;100845.34;6278723;20;3534666;-51
2024/04/11 09:31:45;;;;;;;;;15.00;14.00;;;;;23.53;49.55;100847.22;6310216;20;3534722;-48
2024/04/11 09:34:12;;;;;;;;;15.00;14.00;;;;;23.32;50.10;100834.59;6309621;20;3534756;-47
2024/04/11 09:36:48;;;;;;;;;14.00;14.00;;;;;23.25;50.29;100838.97;6306844;20;2489907;-50
2024/04/11 09:42:12;;;;;;;;;17.33;16.33;;;;;23.74;49.38;100831.44;6277908;20;3569048;-47
2024/04/11 09:44:50;;;;;;;;;16.50;15.00;;;;;22.28;50.91;100833.50;6272125;20;2823236;-49
2024/04/11 09:47:27;;;;;;;;;16.00;14.67;;;;;23.51;49.78;100835.53;6274029;20;3552506;-47
2024/04/11 09:50:04;;;;;;;;;14.00;13.00;;;;;22.17;52.88;100830.84;6275913;20;2639981;-45
2024/04/11 09:52:37;;;;;;;;;14.67;14.00;;;;;24.04;49.26;100829.38;6309126;20;3532577;-45
2024/04/11 09:55:09;;;;;;;;;15.00;14.00;;;;;23.05;51.09;100826.31;6305207;20;2805495;-46
2024/04/11 09:57:49;;;;;;;;;15.33;15.00;;;;;24.04;48.61;100829.38;6278394;20;3559633;-47
2024/04/11 10:00:48;;;;;;;;;18.67;15.00;;;;;23.58;48.79;100828.44;6308631;20;2483654;-48
2024/04/11 10:03:10;;;;;;;;;23.33;15.67;;;;;24.20;49.08;100829.59;6307591;20;3578591;-46
2024/04/11 10:05:45;;;;;;;;;75.33;49.33;;;;;24.26;49.09;100833.59;6276385;20;3665916;-47
2024/04/11 10:08:27;;;;;;;;;15.00;15.00;;;;;24.91;47.99;100837.00;6275389;20;3550288;-46
2024/04/11 10:10:58;;;;;;;;;15.00;15.00;;;;;24.68;49.09;100831.13;6273846;20;2798211;-49
2024/04/11 10:13:25;;;;;;;;;16.50;16.50;;;;;24.98;49.41;100828.94;6272279;20;2834719;-55
2024/04/11 10:16:29;;;;;;;;;14.00;14.00;;;;;24.83;47.68;100836.94;6273029;20;2496171;-49
2024/04/11 10:19:07;;;;;;;;;15.00;15.00;;;;;24.77;47.94;100831.19;6307995;20;3544014;-50
2024/04/11 10:21:39;;;;;;;;;14.00;14.00;;;;;24.96;47.87;100831.00;6311023;20;3533581;-50
2024/04/11 10:24:23;;;;;;;;;19.00;14.33;;;;;24.31;49.21;100828.50;6307493;20;3551483;-45
2024/04/11 10:26:51;;;;;;;;;18.67;16.00;;;;;24.75;47.96;100818.50;6274614;20;3562852;-49
2024/04/11 10:29:20;;;;;;;;;16.00;15.00;;;;;23.90;50.66;100816.19;6270754;20;2820162;-51
2024/04/11 10:31:52;;;;;;;;;15.00;15.00;;;;;24.70;48.85;100826.34;6277354;20;3554408;-49
2024/04/11 10:34:25;;;;;;;;;15.67;13.67;;;;;24.38;49.08;100809.50;6304552;20;2483730;-50
2024/04/11 10:37:07;;;;;;;;;14.00;13.00;;;;;24.75;49.22;100813.00;6307572;20;3532733;-56
2024/04/11 10:39:38;;;;;;;;;16.50;15.00;;;;;24.49;49.78;100812.06;6302453;20;2823217;-52
2024/04/11 10:42:07;;;;;;;;;14.67;14.67;;;;;25.05;48.85;100815.44;6274985;20;3535713;-53
2024/04/11 10:44:38;;;;;;;;;17.00;16.00;;;;;24.26;49.96;100817.97;6273310;20;2816006;-50
2024/04/11 10:47:13;;;;;;;;;15.67;15.33;;;;;24.37;50.13;100818.78;6279303;20;3551718;-49
2024/04/11 10:49:45;;;;;;;;;18.33;16.00;;;;;24.36;49.89;100826.16;6274193;20;3562762;-53
2024/04/11 10:52:13;;;;;;;;;15.33;15.33;;;;;23.74;51.84;100804.00;6277454;20;3536755;-50
2024/04/11 10:54:42;;;;;;;;;19.33;14.67;;;;;24.86;49.91;100820.13;6306643;20;3548754;-51
2024/04/11 10:57:13;;;;;;;;;19.00;18.00;;;;;25.38;48.76;100820.16;6271334;20;2841959;-52
2024/04/11 10:59:50;;;;;;;;;17.00;17.00;;;;;24.92;49.23;100821.34;6272013;20;2835735;-48
2024/04/11 11:02:19;;;;;;;;;13.67;13.33;;;;;24.96;48.90;100814.50;6274167;20;3532544;-54
2024/04/11 11:04:50;;;;;;;;;19.00;18.67;;;;;24.40;49.81;100812.97;6306562;20;3574213;-53